Flight Track Log - Related Links

Times and Time Zones

All times are in EDT time to prevent confusion due to time zone crossing. See the VOZ887 flight status page for this flight to view local times or setup timezone preferences in your user account.

Time Position Orientation Groundspeed Altitude Reporting Facility
EDT Latitude Longitude Course Direction KTS MPH feet Rate Location/Type
Wed 05:37:56 AM -37.6567 144.7688 96° East 5,400  Level Aus ATC (Calculated)
Wed 05:38:32 AM -37.6550 144.7320 95° East 5,400 -1,105 Level Aus ATC (Calculated)
Wed 05:39:36 AM -37.5942 144.6701 122° Southeast 10,400 -1,313 Climbing Aus ATC (Calculated)
Wed 05:41:07 AM -37.5350 144.6450 135° Southeast 12,900 -4,313 Climbing Aus ATC (Calculated)
Wed 05:41:44 AM -37.6597 144.8054 275° West 164 189 1,200 -5,310 Descending Aus ATC (RADAR)
Wed 05:43:00 AM -37.6546 144.7248 306° West 225 259 2,900 1,700 Climbing Aus ATC (RADAR)
Wed 05:43:44 AM -37.6311 144.6843 343° North 251 289 4,600 2,345 Climbing Aus ATC (RADAR)
Wed 05:44:27 AM -37.5914 144.6690 16° North 252 290 6,300 2,496 Climbing Aus ATC (RADAR)
Wed 05:45:49 AM -37.5074 144.6985 59° Northeast 291 335 9,800 2,273 Climbing Aus ATC (RADAR)
Wed 05:46:39 AM -37.4747 144.7673 58° Northeast 322 371 11,300 2,386 Climbing Aus ATC (RADAR)
Wed 05:47:12 AM -37.4461 144.8257 58° Northeast 342 394 13,100 3,037 Climbing Aus ATC (RADAR)
Wed 05:48:00 AM -37.4079 144.9041 58° Northeast 359 413 15,400 2,700 Climbing Aus ATC (RADAR)
Wed 05:48:32 AM -37.3859 144.9492 58° Northeast 367 422 16,700 2,593 Climbing Aus ATC (RADAR)
Wed 05:49:21 AM -37.3449 145.0322 58° Northeast 377 434 18,900 2,857 Climbing Aus ATC (RADAR)
Wed 05:50:17 AM -37.2880 145.1467 58° Northeast 391 450 21,700 2,865 Climbing Aus ATC (RADAR)
Wed 05:51:12 AM -37.2293 145.2651 58° Northeast 405 466 24,200 2,541 Climbing Aus ATC (RADAR)
Wed 05:51:42 AM -37.1939 145.3370 55° Northeast 420 483 25,300 2,214 Climbing Aus ATC (RADAR)
Wed 05:52:55 AM -37.0974 145.5121 54° Northeast 439 505 28,000 2,192 Climbing Aus ATC (RADAR)
Wed 05:53:26 AM -37.0553 145.5855 54° Northeast 447 514 29,100 2,118 Climbing Aus ATC (RADAR)
Wed 05:54:03 AM -37.0001 145.6810 54° Northeast 455 524 30,400 2,000 Climbing Aus ATC (RADAR)
Wed 05:54:44 AM -36.9443 145.7773 54° Northeast 459 528 31,700 1,890 Climbing Aus ATC (RADAR)
Wed 05:55:16 AM -36.9006 145.8524 54° Northeast 460 529 32,700 2,000 Climbing Aus ATC (RADAR)
Wed 05:56:14 AM -36.8207 145.9892 54° Northeast 451 519 34,700 1,667 Climbing Aus ATC (RADAR)
Wed 05:56:46 AM -36.7768 146.0640 54° Northeast 461 531 35,200 957 Climbing Aus ATC (RADAR)
Wed 05:57:23 AM -36.7328 146.1400 53° Northeast 464 534 35,800 1,068 Climbing Aus ATC (RADAR)
Wed 05:57:59 AM -36.6810 146.2269 54° Northeast 469 540 36,500 1,167 Climbing Aus ATC (RADAR)
Wed 05:58:35 AM -36.6363 146.3035 54° Northeast 469 540 37,200 1,043 Climbing Aus ATC (RADAR)
Wed 05:59:31 AM -36.5718 146.4129 54° Northeast 471 542 38,100 914 Climbing Aus ATC (RADAR)
Wed 06:00:20 AM -36.5204 146.5005 54° Northeast 470 541 38,800 590 Climbing Aus ATC (RADAR)
Wed 06:01:33 AM -36.4302 146.6536 54° Northeast 471 542 39,300 238 Climbing Aus ATC (RADAR)
Wed 06:02:26 AM -36.3455 146.7960 54° Northeast 470 541 39,300  Level Aus ATC (RADAR)
Wed 06:03:08 AM -36.2741 146.9164 53° Northeast 471 542 39,300  Level Aus ATC (RADAR)
Wed 06:04:01 AM -36.1820 147.0693 53° Northeast 474 545 39,300  Level Aus ATC (RADAR)
Wed 06:04:52 AM -36.0836 147.2333 53° Northeast 471 542 39,300  Level Aus ATC (RADAR)
Wed 06:05:27 AM -36.0178 147.3423 53° Northeast 472 543 39,300  Level Aus ATC (RADAR)
Wed 06:06:17 AM -35.9186 147.5047 53° Northeast 472 543 39,300  Level Aus ATC (RADAR)
Wed 06:07:17 AM -35.7933 147.7103 53° Northeast 471 542 39,300  Level Aus ATC (RADAR)
Wed 06:08:14 AM -35.6742 147.9040 53° Northeast 469 540 39,300  Level Aus ATC (RADAR)
Wed 06:08:50 AM -35.5953 148.0327 56° Northeast 468 539 39,300  Level Aus ATC (RADAR)
Wed 06:09:38 AM -35.4964 148.2121 55° Northeast 477 549 39,300  Level Aus ATC (RADAR)
Wed 06:10:13 AM -35.4517 148.2915 55° Northeast 482 555 39,300  Level Aus ATC (RADAR)
Wed 06:11:23 AM -35.3617 148.4503 55° Northeast 483 556 39,300  Level Aus ATC (RADAR)
Wed 06:12:18 AM -35.2906 148.5751 55° Northeast 484 557 39,300  Level Aus ATC (RADAR)
Wed 06:13:03 AM -35.2321 148.6779 55° Northeast 487 560 39,300  Level Aus ATC (RADAR)
Wed 06:13:37 AM -35.1869 148.7572 55° Northeast 484 557 39,300  Level Aus ATC (RADAR)
Wed 06:14:22 AM -35.1281 148.8592 55° Northeast 484 557 39,300  Level Aus ATC (RADAR)
Wed 06:14:52 AM -35.0891 148.9273 55° Northeast 486 559 39,300  Level Aus ATC (RADAR)
Wed 06:15:27 AM -35.0433 149.0059 55° Northeast 483 556 39,300  Level Aus ATC (RADAR)
Wed 06:16:37 AM -34.9522 149.1637 55° Northeast 481 554 39,300  Level Aus ATC (RADAR)
Wed 06:17:27 AM -34.8871 149.2756 55° Northeast 481 554 39,300  Level Aus ATC (RADAR)
Wed 06:18:12 AM -34.8286 149.3766 55° Northeast 481 554 39,300 -821 Level Aus ATC (RADAR)
Wed 06:19:02 AM -34.7634 149.4884 55° Northeast 479 551 38,000 -2,000 Descending Aus ATC (RADAR)
Wed 06:19:57 AM -34.6918 149.6114 54° Northeast 474 545 35,800 -2,640 Descending Aus ATC (RADAR)
Wed 06:20:42 AM -34.6332 149.7104 54° Northeast 471 542 33,600 -2,661 Descending Aus ATC (RADAR)
Wed 06:21:52 AM -34.5448 149.8604 56° Northeast 454 522 30,700 -3,000 Descending Aus ATC (RADAR)
Wed 06:22:42 AM -34.4851 149.9693 62° Northeast 455 524 27,600 -3,267 Descending Aus ATC (RADAR)
Wed 06:23:22 AM -34.4450 150.0616 62° Northeast 450 518 25,800 -3,000 Descending Aus ATC (RADAR)
Wed 06:23:52 AM -34.4151 150.1292 62° Northeast 442 509 24,100 -3,343 Descending Aus ATC (RADAR)
Wed 06:24:32 AM -34.3750 150.2185 62° Northeast 438 504 21,900 -3,071 Descending Aus ATC (RADAR)
Wed 06:25:16 AM -34.3312 150.3175 61° Northeast 429 494 19,800 -2,753 Descending Aus ATC (RADAR)
Wed 06:25:57 AM -34.2928 150.4021 62° Northeast 417 480 18,000 -2,604 Descending Aus ATC (RADAR)
Wed 06:27:02 AM -34.2336 150.5352 62° Northeast 396 456 15,200 -2,632 Descending Aus ATC (RADAR)
Wed 06:27:51 AM -34.1895 150.6341 62° Northeast 386 444 13,000 -2,545 Descending Aus ATC (RADAR)
Wed 06:28:41 AM -34.1468 150.7292 61° Northeast 372 428 11,000 -2,325 Descending Aus ATC (RADAR)
Wed 06:29:11 AM -34.1219 150.7841 62° Northeast 362 417 9,900 -2,320 Descending Aus ATC (RADAR)
Wed 06:29:56 AM -34.0859 150.8643 65° Northeast 350 403 8,100 -2,094 Descending Aus ATC (RADAR)
Wed 06:30:57 AM -34.0456 150.9682 83° East 328 377 6,200 -1,008 Descending Aus ATC (RADAR)
Wed 06:32:01 AM -34.0340 151.0790 83° East 284 327 6,000 -93 Descending Aus ATC (RADAR)
Wed 06:33:06 AM -34.0233 151.1793 83° East 268 308 6,000  Level Aus ATC (RADAR)
Wed 06:33:52 AM -34.0157 151.2485 82° East 271 312 6,000 -450 Level Aus ATC (RADAR)
Wed 06:34:26 AM -34.0096 151.3024 82° East 268 308 5,400 -1,071 Descending Aus ATC (RADAR)
Wed 06:35:16 AM -34.0008 151.3771 30° Northeast 259 298 4,500 -1,145 Descending Aus ATC (RADAR)
Wed 06:36:16 AM -33.9458 151.4150 311° West 246 283 3,300 -1,020 Descending Aus ATC (RADAR)
Wed 06:36:56 AM -33.9193 151.3784 289° West 218 251 2,800 -592 Descending Aus ATC (RADAR)
Wed 06:37:27 AM -33.9102 151.3461 273° West 200 230 2,600 -636 Descending Aus ATC (RADAR)
Wed 06:38:02 AM -33.9084 151.3118 253° West 180 207 2,100 -892 Descending Aus ATC (RADAR)
Wed 06:38:41 AM -33.9174 151.2760 254° West 163 188 1,500 -911 Descending Aus ATC (RADAR)
Wed 06:39:21 AM -33.9248 151.2440 254° West 146 168 900 -750 Descending Aus ATC (RADAR)
Wed 06:40:01 AM -33.9316 151.2149 254° West 135 155 500 -686 Descending Aus ATC (RADAR)
Wed 06:40:31 AM -33.9369 151.1932 254° West 133 153 100 -800 Descending Aus ATC (RADAR)

Login

Don't have an account? Register now (free) for customized features, flight alerts, and more!